sensor_id;sensor_type;location;lat;lon;timestamp;P1;durP1;ratioP1;P2;durP2;ratioP2
9763;SDS011;4921;43.214;27.936;2024-01-30T00:01:10;16.67;;;7.78;;
9763;SDS011;4921;43.214;27.936;2024-01-30T00:03:36;16.95;;;7.10;;
9763;SDS011;4921;43.214;27.936;2024-01-30T00:06:02;17.20;;;8.23;;
9763;SDS011;4921;43.214;27.936;2024-01-30T00:08:28;17.38;;;7.18;;
9763;SDS011;4921;43.214;27.936;2024-01-30T00:10:54;16.73;;;6.90;;
9763;SDS011;4921;43.214;27.936;2024-01-30T00:13:20;17.40;;;7.10;;
9763;SDS011;4921;43.214;27.936;2024-01-30T00:15:45;16.60;;;6.53;;
9763;SDS011;4921;43.214;27.936;2024-01-30T00:18:11;16.50;;;6.72;;
9763;SDS011;4921;43.214;27.936;2024-01-30T00:20:37;17.05;;;7.30;;
9763;SDS011;4921;43.214;27.936;2024-01-30T00:23:03;18.13;;;8.43;;
9763;SDS011;4921;43.214;27.936;2024-01-30T00:25:28;16.08;;;7.82;;
9763;SDS011;4921;43.214;27.936;2024-01-30T00:27:54;19.73;;;8.25;;
9763;SDS011;4921;43.214;27.936;2024-01-30T00:30:20;17.90;;;7.90;;
9763;SDS011;4921;43.214;27.936;2024-01-30T00:32:45;18.63;;;8.05;;
9763;SDS011;4921;43.214;27.936;2024-01-30T00:35:11;15.43;;;7.15;;
9763;SDS011;4921;43.214;27.936;2024-01-30T00:37:36;22.42;;;8.50;;
9763;SDS011;4921;43.214;27.936;2024-01-30T00:40:02;17.30;;;8.52;;
9763;SDS011;4921;43.214;27.936;2024-01-30T00:42:28;20.83;;;8.40;;
9763;SDS011;4921;43.214;27.936;2024-01-30T00:44:54;18.58;;;8.40;;
9763;SDS011;4921;43.214;27.936;2024-01-30T00:47:19;21.30;;;7.30;;
9763;SDS011;4921;43.214;27.936;2024-01-30T00:49:45;17.95;;;8.18;;
9763;SDS011;4921;43.214;27.936;2024-01-30T00:52:11;17.83;;;8.00;;
9763;SDS011;4921;43.214;27.936;2024-01-30T00:54:36;19.92;;;8.15;;
9763;SDS011;4921;43.214;27.936;2024-01-30T00:57:02;16.45;;;7.35;;
9763;SDS011;4921;43.214;27.936;2024-01-30T00:59:28;18.52;;;7.55;;
9763;SDS011;4921;43.214;27.936;2024-01-30T01:01:54;16.35;;;7.50;;
9763;SDS011;4921;43.214;27.936;2024-01-30T01:04:19;18.45;;;7.22;;
9763;SDS011;4921;43.214;27.936;2024-01-30T01:06:46;15.95;;;7.30;;
9763;SDS011;4921;43.214;27.936;2024-01-30T01:09:12;16.38;;;7.72;;
9763;SDS011;4921;43.214;27.936;2024-01-30T01:11:38;19.23;;;8.88;;
9763;SDS011;4921;43.214;27.936;2024-01-30T01:14:04;18.10;;;7.68;;
9763;SDS011;4921;43.214;27.936;2024-01-30T01:16:30;16.45;;;8.15;;
9763;SDS011;4921;43.214;27.936;2024-01-30T01:18:55;18.23;;;7.35;;
9763;SDS011;4921;43.214;27.936;2024-01-30T01:21:21;18.67;;;7.40;;
9763;SDS011;4921;43.214;27.936;2024-01-30T01:23:46;17.58;;;7.57;;
9763;SDS011;4921;43.214;27.936;2024-01-30T01:26:12;19.15;;;7.95;;
9763;SDS011;4921;43.214;27.936;2024-01-30T01:28:40;19.60;;;7.82;;
9763;SDS011;4921;43.214;27.936;2024-01-30T01:31:06;15.40;;;6.90;;
9763;SDS011;4921;43.214;27.936;2024-01-30T01:33:31;18.10;;;6.75;;
9763;SDS011;4921;43.214;27.936;2024-01-30T01:35:58;14.05;;;7.07;;
9763;SDS011;4921;43.214;27.936;2024-01-30T01:38:24;16.30;;;6.93;;
9763;SDS011;4921;43.214;27.936;2024-01-30T01:40:49;16.48;;;7.20;;
9763;SDS011;4921;43.214;27.936;2024-01-30T01:43:16;17.55;;;7.25;;
9763;SDS011;4921;43.214;27.936;2024-01-30T01:45:41;20.27;;;7.88;;
9763;SDS011;4921;43.214;27.936;2024-01-30T01:48:07;19.20;;;8.05;;
9763;SDS011;4921;43.214;27.936;2024-01-30T01:50:34;19.38;;;7.57;;
9763;SDS011;4921;43.214;27.936;2024-01-30T01:53:00;19.15;;;7.75;;
9763;SDS011;4921;43.214;27.936;2024-01-30T01:55:27;17.83;;;7.63;;
9763;SDS011;4921;43.214;27.936;2024-01-30T01:57:55;17.70;;;7.40;;
9763;SDS011;4921;43.214;27.936;2024-01-30T02:00:21;17.48;;;7.85;;
9763;SDS011;4921;43.214;27.936;2024-01-30T02:02:47;16.85;;;7.88;;
9763;SDS011;4921;43.214;27.936;2024-01-30T02:05:13;16.95;;;7.75;;
9763;SDS011;4921;43.214;27.936;2024-01-30T02:07:40;19.85;;;7.90;;
9763;SDS011;4921;43.214;27.936;2024-01-30T02:10:07;18.38;;;7.28;;
9763;SDS011;4921;43.214;27.936;2024-01-30T02:12:33;18.50;;;8.18;;
9763;SDS011;4921;43.214;27.936;2024-01-30T02:14:59;17.50;;;7.13;;
9763;SDS011;4921;43.214;27.936;2024-01-30T02:17:24;18.20;;;7.55;;
9763;SDS011;4921;43.214;27.936;2024-01-30T02:19:50;16.83;;;7.35;;
9763;SDS011;4921;43.214;27.936;2024-01-30T02:22:16;22.02;;;7.13;;
9763;SDS011;4921;43.214;27.936;2024-01-30T02:24:43;16.83;;;7.10;;
9763;SDS011;4921;43.214;27.936;2024-01-30T02:27:08;15.18;;;7.03;;
9763;SDS011;4921;43.214;27.936;2024-01-30T02:29:34;18.50;;;7.68;;
9763;SDS011;4921;43.214;27.936;2024-01-30T02:31:59;21.10;;;8.15;;
9763;SDS011;4921;43.214;27.936;2024-01-30T02:34:25;17.48;;;7.55;;
9763;SDS011;4921;43.214;27.936;2024-01-30T02:36:50;15.85;;;7.35;;
9763;SDS011;4921;43.214;27.936;2024-01-30T02:39:16;21.10;;;8.60;;
9763;SDS011;4921;43.214;27.936;2024-01-30T02:41:41;17.50;;;7.25;;
9763;SDS011;4921;43.214;27.936;2024-01-30T02:44:07;19.23;;;7.22;;
9763;SDS011;4921;43.214;27.936;2024-01-30T02:46:32;15.43;;;6.90;;
9763;SDS011;4921;43.214;27.936;2024-01-30T02:48:58;16.23;;;7.13;;
9763;SDS011;4921;43.214;27.936;2024-01-30T02:51:23;15.15;;;6.45;;
9763;SDS011;4921;43.214;27.936;2024-01-30T02:53:49;21.65;;;7.78;;
9763;SDS011;4921;43.214;27.936;2024-01-30T02:56:14;17.08;;;7.45;;
9763;SDS011;4921;43.214;27.936;2024-01-30T02:58:40;19.35;;;7.25;;
9763;SDS011;4921;43.214;27.936;2024-01-30T03:01:06;17.33;;;6.72;;
9763;SDS011;4921;43.214;27.936;2024-01-30T03:03:32;20.13;;;7.90;;
9763;SDS011;4921;43.214;27.936;2024-01-30T03:06:00;18.65;;;7.68;;
9763;SDS011;4921;43.214;27.936;2024-01-30T03:08:25;18.80;;;7.53;;
9763;SDS011;4921;43.214;27.936;2024-01-30T03:10:51;19.48;;;7.05;;
9763;SDS011;4921;43.214;27.936;2024-01-30T03:13:16;18.17;;;7.55;;
9763;SDS011;4921;43.214;27.936;2024-01-30T03:15:42;16.23;;;7.13;;
9763;SDS011;4921;43.214;27.936;2024-01-30T03:18:07;18.83;;;7.28;;
9763;SDS011;4921;43.214;27.936;2024-01-30T03:20:33;17.48;;;6.78;;
9763;SDS011;4921;43.214;27.936;2024-01-30T03:22:59;20.30;;;7.68;;
9763;SDS011;4921;43.214;27.936;2024-01-30T03:25:25;18.45;;;7.68;;
9763;SDS011;4921;43.214;27.936;2024-01-30T03:27:51;17.40;;;8.25;;
9763;SDS011;4921;43.214;27.936;2024-01-30T03:30:16;14.45;;;6.22;;
9763;SDS011;4921;43.214;27.936;2024-01-30T03:32:43;15.02;;;6.47;;
9763;SDS011;4921;43.214;27.936;2024-01-30T03:35:09;16.27;;;6.43;;
9763;SDS011;4921;43.214;27.936;2024-01-30T03:37:34;16.48;;;7.30;;
9763;SDS011;4921;43.214;27.936;2024-01-30T03:40:00;17.60;;;8.10;;
9763;SDS011;4921;43.214;27.936;2024-01-30T03:42:26;18.65;;;7.68;;
9763;SDS011;4921;43.214;27.936;2024-01-30T03:44:52;18.75;;;7.38;;
9763;SDS011;4921;43.214;27.936;2024-01-30T03:47:18;18.45;;;7.90;;
9763;SDS011;4921;43.214;27.936;2024-01-30T03:49:45;15.60;;;6.60;;
9763;SDS011;4921;43.214;27.936;2024-01-30T03:52:10;17.38;;;7.47;;
9763;SDS011;4921;43.214;27.936;2024-01-30T03:54:36;17.77;;;7.72;;
9763;SDS011;4921;43.214;27.936;2024-01-30T03:57:02;15.82;;;6.95;;
9763;SDS011;4921;43.214;27.936;2024-01-30T03:59:27;17.52;;;7.78;;
9763;SDS011;4921;43.214;27.936;2024-01-30T04:01:53;17.15;;;7.55;;
9763;SDS011;4921;43.214;27.936;2024-01-30T04:04:18;17.25;;;6.57;;
9763;SDS011;4921;43.214;27.936;2024-01-30T04:06:44;15.68;;;6.70;;
9763;SDS011;4921;43.214;27.936;2024-01-30T04:09:10;19.70;;;7.53;;
9763;SDS011;4921;43.214;27.936;2024-01-30T04:11:38;17.50;;;7.28;;
9763;SDS011;4921;43.214;27.936;2024-01-30T04:14:03;16.15;;;7.47;;
9763;SDS011;4921;43.214;27.936;2024-01-30T04:16:29;16.60;;;7.05;;
9763;SDS011;4921;43.214;27.936;2024-01-30T04:18:54;17.52;;;7.15;;
9763;SDS011;4921;43.214;27.936;2024-01-30T04:21:21;17.35;;;7.32;;
9763;SDS011;4921;43.214;27.936;2024-01-30T04:23:47;14.15;;;6.93;;
9763;SDS011;4921;43.214;27.936;2024-01-30T04:26:13;19.35;;;6.97;;
9763;SDS011;4921;43.214;27.936;2024-01-30T04:28:41;18.38;;;8.38;;
9763;SDS011;4921;43.214;27.936;2024-01-30T04:31:08;17.25;;;7.35;;
9763;SDS011;4921;43.214;27.936;2024-01-30T04:33:33;16.30;;;7.40;;
9763;SDS011;4921;43.214;27.936;2024-01-30T04:35:59;15.45;;;6.95;;
9763;SDS011;4921;43.214;27.936;2024-01-30T04:38:24;17.70;;;7.20;;
9763;SDS011;4921;43.214;27.936;2024-01-30T04:40:50;17.20;;;6.35;;
9763;SDS011;4921;43.214;27.936;2024-01-30T04:43:15;17.33;;;6.78;;
9763;SDS011;4921;43.214;27.936;2024-01-30T04:45:41;15.70;;;6.60;;
9763;SDS011;4921;43.214;27.936;2024-01-30T04:48:07;19.00;;;7.22;;
9763;SDS011;4921;43.214;27.936;2024-01-30T04:50:32;13.35;;;6.38;;
9763;SDS011;4921;43.214;27.936;2024-01-30T04:52:58;14.13;;;5.90;;
9763;SDS011;4921;43.214;27.936;2024-01-30T04:55:23;17.05;;;7.32;;
9763;SDS011;4921;43.214;27.936;2024-01-30T04:57:49;14.40;;;6.22;;
9763;SDS011;4921;43.214;27.936;2024-01-30T05:00:15;17.55;;;6.78;;
9763;SDS011;4921;43.214;27.936;2024-01-30T05:02:40;14.23;;;6.40;;
9763;SDS011;4921;43.214;27.936;2024-01-30T05:05:06;13.45;;;6.25;;
9763;SDS011;4921;43.214;27.936;2024-01-30T05:07:32;16.20;;;6.57;;
9763;SDS011;4921;43.214;27.936;2024-01-30T05:09:58;19.55;;;7.25;;
9763;SDS011;4921;43.214;27.936;2024-01-30T05:12:24;13.80;;;6.05;;
9763;SDS011;4921;43.214;27.936;2024-01-30T05:14:49;16.35;;;6.30;;
9763;SDS011;4921;43.214;27.936;2024-01-30T05:17:15;15.23;;;6.28;;
9763;SDS011;4921;43.214;27.936;2024-01-30T05:19:40;18.77;;;6.85;;
9763;SDS011;4921;43.214;27.936;2024-01-30T05:22:06;15.00;;;6.32;;
9763;SDS011;4921;43.214;27.936;2024-01-30T05:24:31;16.13;;;6.13;;
9763;SDS011;4921;43.214;27.936;2024-01-30T05:26:57;15.48;;;5.82;;
9763;SDS011;4921;43.214;27.936;2024-01-30T05:29:23;14.70;;;6.60;;
9763;SDS011;4921;43.214;27.936;2024-01-30T05:31:49;16.15;;;5.82;;
9763;SDS011;4921;43.214;27.936;2024-01-30T05:34:15;14.43;;;6.18;;
9763;SDS011;4921;43.214;27.936;2024-01-30T05:36:41;16.80;;;6.63;;
9763;SDS011;4921;43.214;27.936;2024-01-30T05:39:06;14.70;;;7.22;;
9763;SDS011;4921;43.214;27.936;2024-01-30T05:41:32;16.98;;;6.72;;
9763;SDS011;4921;43.214;27.936;2024-01-30T05:43:58;13.80;;;5.55;;
9763;SDS011;4921;43.214;27.936;2024-01-30T05:46:23;13.38;;;5.60;;
9763;SDS011;4921;43.214;27.936;2024-01-30T05:48:49;15.15;;;5.82;;
9763;SDS011;4921;43.214;27.936;2024-01-30T05:51:14;11.93;;;4.70;;
9763;SDS011;4921;43.214;27.936;2024-01-30T05:53:39;17.00;;;6.90;;
9763;SDS011;4921;43.214;27.936;2024-01-30T05:56:05;12.65;;;5.82;;
9763;SDS011;4921;43.214;27.936;2024-01-30T05:58:31;13.98;;;6.45;;
9763;SDS011;4921;43.214;27.936;2024-01-30T06:00:57;14.85;;;5.82;;
9763;SDS011;4921;43.214;27.936;2024-01-30T06:03:23;19.17;;;5.75;;
9763;SDS011;4921;43.214;27.936;2024-01-30T06:05:48;14.48;;;6.00;;
9763;SDS011;4921;43.214;27.936;2024-01-30T06:08:14;10.90;;;5.15;;
9763;SDS011;4921;43.214;27.936;2024-01-30T06:10:39;13.43;;;6.10;;
9763;SDS011;4921;43.214;27.936;2024-01-30T06:13:05;15.52;;;5.63;;
9763;SDS011;4921;43.214;27.936;2024-01-30T06:15:31;15.63;;;6.25;;
9763;SDS011;4921;43.214;27.936;2024-01-30T06:17:58;12.93;;;5.40;;
9763;SDS011;4921;43.214;27.936;2024-01-30T06:20:24;12.23;;;5.22;;
9763;SDS011;4921;43.214;27.936;2024-01-30T06:22:50;13.10;;;5.65;;
9763;SDS011;4921;43.214;27.936;2024-01-30T06:25:15;12.18;;;4.97;;
9763;SDS011;4921;43.214;27.936;2024-01-30T06:27:42;10.85;;;4.75;;
9763;SDS011;4921;43.214;27.936;2024-01-30T06:30:09;12.25;;;4.45;;
9763;SDS011;4921;43.214;27.936;2024-01-30T06:32:35;12.30;;;5.90;;
9763;SDS011;4921;43.214;27.936;2024-01-30T06:35:01;9.88;;;4.15;;
9763;SDS011;4921;43.214;27.936;2024-01-30T06:37:27;12.52;;;4.72;;
9763;SDS011;4921;43.214;27.936;2024-01-30T06:40:11;12.23;;;4.68;;
9763;SDS011;4921;43.214;27.936;2024-01-30T06:42:37;9.73;;;4.22;;
9763;SDS011;4921;43.214;27.936;2024-01-30T06:45:02;11.18;;;4.80;;
9763;SDS011;4921;43.214;27.936;2024-01-30T06:47:28;10.23;;;4.05;;
9763;SDS011;4921;43.214;27.936;2024-01-30T06:49:56;11.13;;;4.85;;
9763;SDS011;4921;43.214;27.936;2024-01-30T06:52:21;11.70;;;3.88;;
9763;SDS011;4921;43.214;27.936;2024-01-30T06:54:47;13.15;;;4.38;;
9763;SDS011;4921;43.214;27.936;2024-01-30T06:57:12;11.15;;;4.70;;
9763;SDS011;4921;43.214;27.936;2024-01-30T06:59:39;8.80;;;4.15;;
9763;SDS011;4921;43.214;27.936;2024-01-30T07:02:09;9.40;;;3.90;;
9763;SDS011;4921;43.214;27.936;2024-01-30T07:04:35;12.38;;;4.40;;
9763;SDS011;4921;43.214;27.936;2024-01-30T07:07:03;9.57;;;4.43;;
9763;SDS011;4921;43.214;27.936;2024-01-30T07:09:30;11.02;;;4.38;;
9763;SDS011;4921;43.214;27.936;2024-01-30T07:11:56;10.70;;;4.20;;
9763;SDS011;4921;43.214;27.936;2024-01-30T07:14:23;10.65;;;4.68;;
9763;SDS011;4921;43.214;27.936;2024-01-30T07:16:49;10.63;;;4.40;;
9763;SDS011;4921;43.214;27.936;2024-01-30T07:19:15;10.93;;;4.68;;
9763;SDS011;4921;43.214;27.936;2024-01-30T07:21:41;15.18;;;5.28;;
9763;SDS011;4921;43.214;27.936;2024-01-30T07:24:06;13.32;;;4.95;;
9763;SDS011;4921;43.214;27.936;2024-01-30T07:26:32;9.10;;;4.03;;
9763;SDS011;4921;43.214;27.936;2024-01-30T07:28:57;14.43;;;5.20;;
9763;SDS011;4921;43.214;27.936;2024-01-30T07:31:23;9.85;;;4.18;;
9763;SDS011;4921;43.214;27.936;2024-01-30T07:33:48;12.88;;;4.65;;
9763;SDS011;4921;43.214;27.936;2024-01-30T07:36:14;10.25;;;4.60;;
9763;SDS011;4921;43.214;27.936;2024-01-30T07:38:40;11.40;;;4.88;;
9763;SDS011;4921;43.214;27.936;2024-01-30T07:41:05;15.85;;;5.00;;
9763;SDS011;4921;43.214;27.936;2024-01-30T07:43:31;12.77;;;4.93;;
9763;SDS011;4921;43.214;27.936;2024-01-30T07:45:56;11.27;;;4.30;;
9763;SDS011;4921;43.214;27.936;2024-01-30T07:48:22;11.07;;;4.28;;
9763;SDS011;4921;43.214;27.936;2024-01-30T07:50:47;12.65;;;4.65;;
9763;SDS011;4921;43.214;27.936;2024-01-30T07:53:13;8.98;;;4.15;;
9763;SDS011;4921;43.214;27.936;2024-01-30T07:55:38;12.93;;;4.47;;
9763;SDS011;4921;43.214;27.936;2024-01-30T07:58:04;11.38;;;3.53;;
9763;SDS011;4921;43.214;27.936;2024-01-30T08:00:30;12.00;;;4.57;;
9763;SDS011;4921;43.214;27.936;2024-01-30T08:02:55;10.77;;;4.20;;
9763;SDS011;4921;43.214;27.936;2024-01-30T08:05:21;13.18;;;4.40;;
9763;SDS011;4921;43.214;27.936;2024-01-30T08:07:48;10.13;;;4.55;;
9763;SDS011;4921;43.214;27.936;2024-01-30T08:10:14;9.38;;;3.85;;
9763;SDS011;4921;43.214;27.936;2024-01-30T08:12:39;11.82;;;4.35;;
9763;SDS011;4921;43.214;27.936;2024-01-30T08:15:05;10.63;;;4.35;;
9763;SDS011;4921;43.214;27.936;2024-01-30T08:17:31;8.73;;;3.65;;
9763;SDS011;4921;43.214;27.936;2024-01-30T08:19:57;11.70;;;4.10;;
9763;SDS011;4921;43.214;27.936;2024-01-30T08:22:22;8.88;;;4.63;;
9763;SDS011;4921;43.214;27.936;2024-01-30T08:24:47;8.63;;;3.70;;
9763;SDS011;4921;43.214;27.936;2024-01-30T08:27:13;14.02;;;4.47;;
9763;SDS011;4921;43.214;27.936;2024-01-30T08:29:38;9.80;;;4.05;;
9763;SDS011;4921;43.214;27.936;2024-01-30T08:32:05;13.32;;;4.88;;
9763;SDS011;4921;43.214;27.936;2024-01-30T08:34:31;9.07;;;4.50;;
9763;SDS011;4921;43.214;27.936;2024-01-30T08:36:57;11.45;;;4.78;;
9763;SDS011;4921;43.214;27.936;2024-01-30T08:39:22;10.52;;;4.32;;
9763;SDS011;4921;43.214;27.936;2024-01-30T08:41:48;10.85;;;4.22;;
9763;SDS011;4921;43.214;27.936;2024-01-30T08:44:13;9.65;;;3.90;;
9763;SDS011;4921;43.214;27.936;2024-01-30T08:46:39;10.63;;;4.43;;
9763;SDS011;4921;43.214;27.936;2024-01-30T08:49:04;11.35;;;4.47;;
9763;SDS011;4921;43.214;27.936;2024-01-30T08:51:30;10.77;;;4.40;;
9763;SDS011;4921;43.214;27.936;2024-01-30T08:53:56;10.57;;;4.05;;
9763;SDS011;4921;43.214;27.936;2024-01-30T08:56:21;10.38;;;4.00;;
9763;SDS011;4921;43.214;27.936;2024-01-30T08:58:47;12.02;;;4.32;;
9763;SDS011;4921;43.214;27.936;2024-01-30T09:01:13;9.75;;;4.63;;
9763;SDS011;4921;43.214;27.936;2024-01-30T09:03:39;10.27;;;3.38;;
9763;SDS011;4921;43.214;27.936;2024-01-30T09:06:09;9.27;;;3.67;;
9763;SDS011;4921;43.214;27.936;2024-01-30T09:08:38;10.25;;;3.90;;
9763;SDS011;4921;43.214;27.936;2024-01-30T09:11:13;9.63;;;4.38;;
9763;SDS011;4921;43.214;27.936;2024-01-30T09:13:40;8.82;;;3.88;;
9763;SDS011;4921;43.214;27.936;2024-01-30T09:16:05;7.53;;;3.45;;
9763;SDS011;4921;43.214;27.936;2024-01-30T09:18:31;9.02;;;3.92;;
9763;SDS011;4921;43.214;27.936;2024-01-30T09:20:57;8.70;;;3.75;;
9763;SDS011;4921;43.214;27.936;2024-01-30T09:23:23;12.73;;;3.72;;
9763;SDS011;4921;43.214;27.936;2024-01-30T09:25:48;11.60;;;4.18;;
9763;SDS011;4921;43.214;27.936;2024-01-30T09:28:14;10.40;;;3.47;;
9763;SDS011;4921;43.214;27.936;2024-01-30T09:30:40;9.38;;;4.38;;
9763;SDS011;4921;43.214;27.936;2024-01-30T09:33:06;13.23;;;4.30;;
9763;SDS011;4921;43.214;27.936;2024-01-30T09:35:31;9.73;;;3.40;;
9763;SDS011;4921;43.214;27.936;2024-01-30T09:37:57;9.82;;;3.90;;
9763;SDS011;4921;43.214;27.936;2024-01-30T09:40:23;10.25;;;3.97;;
9763;SDS011;4921;43.214;27.936;2024-01-30T09:42:49;8.63;;;3.97;;
9763;SDS011;4921;43.214;27.936;2024-01-30T09:45:17;8.55;;;3.67;;
9763;SDS011;4921;43.214;27.936;2024-01-30T09:47:44;9.70;;;3.67;;
9763;SDS011;4921;43.214;27.936;2024-01-30T09:50:11;10.07;;;3.33;;
9763;SDS011;4921;43.214;27.936;2024-01-30T09:52:38;11.43;;;4.55;;
9763;SDS011;4921;43.214;27.936;2024-01-30T09:55:04;8.02;;;3.83;;
9763;SDS011;4921;43.214;27.936;2024-01-30T09:57:30;8.68;;;4.07;;
9763;SDS011;4921;43.214;27.936;2024-01-30T09:59:56;8.90;;;3.78;;
9763;SDS011;4921;43.214;27.936;2024-01-30T10:02:22;11.15;;;4.35;;
9763;SDS011;4921;43.214;27.936;2024-01-30T10:04:48;9.73;;;4.25;;
9763;SDS011;4921;43.214;27.936;2024-01-30T10:07:15;7.72;;;4.07;;
9763;SDS011;4921;43.214;27.936;2024-01-30T10:09:41;8.18;;;3.65;;
9763;SDS011;4921;43.214;27.936;2024-01-30T10:12:07;7.78;;;3.70;;
9763;SDS011;4921;43.214;27.936;2024-01-30T10:14:37;8.57;;;4.40;;
9763;SDS011;4921;43.214;27.936;2024-01-30T10:17:03;9.38;;;3.85;;
9763;SDS011;4921;43.214;27.936;2024-01-30T10:19:30;9.00;;;3.50;;
9763;SDS011;4921;43.214;27.936;2024-01-30T10:21:56;10.63;;;4.53;;
9763;SDS011;4921;43.214;27.936;2024-01-30T10:24:25;10.40;;;3.78;;
9763;SDS011;4921;43.214;27.936;2024-01-30T10:26:50;9.15;;;3.45;;
9763;SDS011;4921;43.214;27.936;2024-01-30T10:29:16;9.30;;;4.07;;
9763;SDS011;4921;43.214;27.936;2024-01-30T10:31:42;10.32;;;4.43;;
9763;SDS011;4921;43.214;27.936;2024-01-30T10:34:08;12.85;;;4.05;;
9763;SDS011;4921;43.214;27.936;2024-01-30T10:36:33;11.18;;;4.35;;
9763;SDS011;4921;43.214;27.936;2024-01-30T10:41:42;9.52;;;3.70;;
9763;SDS011;4921;43.214;27.936;2024-01-30T10:44:09;8.63;;;4.15;;
9763;SDS011;4921;43.214;27.936;2024-01-30T10:46:37;12.10;;;4.68;;
9763;SDS011;4921;43.214;27.936;2024-01-30T10:49:03;12.88;;;4.13;;
9763;SDS011;4921;43.214;27.936;2024-01-30T10:51:31;9.93;;;4.30;;
9763;SDS011;4921;43.214;27.936;2024-01-30T10:53:57;9.93;;;3.83;;
9763;SDS011;4921;43.214;27.936;2024-01-30T10:56:23;8.23;;;3.75;;
9763;SDS011;4921;43.214;27.936;2024-01-30T10:58:52;7.97;;;3.72;;
9763;SDS011;4921;43.214;27.936;2024-01-30T11:01:22;6.93;;;3.58;;
9763;SDS011;4921;43.214;27.936;2024-01-30T11:03:50;8.10;;;3.88;;
9763;SDS011;4921;43.214;27.936;2024-01-30T11:06:16;10.88;;;4.28;;
9763;SDS011;4921;43.214;27.936;2024-01-30T11:08:45;10.27;;;3.75;;
9763;SDS011;4921;43.214;27.936;2024-01-30T11:11:11;7.30;;;3.63;;
9763;SDS011;4921;43.214;27.936;2024-01-30T11:13:37;8.35;;;3.47;;
9763;SDS011;4921;43.214;27.936;2024-01-30T11:16:05;8.20;;;3.75;;
9763;SDS011;4921;43.214;27.936;2024-01-30T11:18:31;9.77;;;3.97;;
9763;SDS011;4921;43.214;27.936;2024-01-30T11:21:00;8.10;;;3.33;;
9763;SDS011;4921;43.214;27.936;2024-01-30T11:23:30;14.43;;;3.28;;
9763;SDS011;4921;43.214;27.936;2024-01-30T11:25:58;9.48;;;3.67;;
9763;SDS011;4921;43.214;27.936;2024-01-30T11:28:23;7.55;;;3.50;;
9763;SDS011;4921;43.214;27.936;2024-01-30T11:30:49;9.13;;;4.22;;
9763;SDS011;4921;43.214;27.936;2024-01-30T11:33:26;6.85;;;3.50;;
9763;SDS011;4921;43.214;27.936;2024-01-30T11:35:56;8.57;;;3.25;;
9763;SDS011;4921;43.214;27.936;2024-01-30T11:38:23;7.32;;;3.17;;
9763;SDS011;4921;43.214;27.936;2024-01-30T11:40:51;8.32;;;3.83;;
9763;SDS011;4921;43.214;27.936;2024-01-30T11:43:18;7.05;;;3.05;;
9763;SDS011;4921;43.214;27.936;2024-01-30T11:45:44;11.68;;;4.00;;
9763;SDS011;4921;43.214;27.936;2024-01-30T11:48:11;9.60;;;3.35;;
9763;SDS011;4921;43.214;27.936;2024-01-30T11:50:37;9.15;;;3.63;;
9763;SDS011;4921;43.214;27.936;2024-01-30T11:53:04;8.55;;;3.80;;
9763;SDS011;4921;43.214;27.936;2024-01-30T11:55:30;10.48;;;3.67;;
9763;SDS011;4921;43.214;27.936;2024-01-30T11:57:59;10.52;;;3.83;;
9763;SDS011;4921;43.214;27.936;2024-01-30T12:00:25;9.45;;;3.90;;
9763;SDS011;4921;43.214;27.936;2024-01-30T12:02:54;8.60;;;3.65;;
9763;SDS011;4921;43.214;27.936;2024-01-30T12:05:27;6.80;;;3.38;;
9763;SDS011;4921;43.214;27.936;2024-01-30T12:07:53;8.40;;;3.28;;
9763;SDS011;4921;43.214;27.936;2024-01-30T12:10:19;7.05;;;2.47;;
9763;SDS011;4921;43.214;27.936;2024-01-30T12:12:51;8.13;;;3.63;;
9763;SDS011;4921;43.214;27.936;2024-01-30T12:15:17;8.38;;;3.47;;
9763;SDS011;4921;43.214;27.936;2024-01-30T12:17:44;9.23;;;3.20;;
9763;SDS011;4921;43.214;27.936;2024-01-30T12:20:10;6.70;;;3.17;;
9763;SDS011;4921;43.214;27.936;2024-01-30T12:22:40;11.45;;;3.90;;
9763;SDS011;4921;43.214;27.936;2024-01-30T12:25:16;9.05;;;3.15;;
9763;SDS011;4921;43.214;27.936;2024-01-30T12:27:46;8.63;;;3.33;;
9763;SDS011;4921;43.214;27.936;2024-01-30T12:30:16;9.32;;;3.83;;
9763;SDS011;4921;43.214;27.936;2024-01-30T12:32:45;8.65;;;3.53;;
9763;SDS011;4921;43.214;27.936;2024-01-30T12:35:16;8.93;;;4.15;;
9763;SDS011;4921;43.214;27.936;2024-01-30T12:37:43;7.65;;;3.40;;
9763;SDS011;4921;43.214;27.936;2024-01-30T12:40:10;8.68;;;3.15;;
9763;SDS011;4921;43.214;27.936;2024-01-30T12:42:38;7.40;;;3.08;;
9763;SDS011;4921;43.214;27.936;2024-01-30T12:45:04;7.20;;;2.97;;
9763;SDS011;4921;43.214;27.936;2024-01-30T12:47:30;8.55;;;3.05;;
9763;SDS011;4921;43.214;27.936;2024-01-30T12:49:56;9.52;;;2.75;;
9763;SDS011;4921;43.214;27.936;2024-01-30T12:52:22;8.98;;;3.40;;
9763;SDS011;4921;43.214;27.936;2024-01-30T12:54:48;10.88;;;3.40;;
9763;SDS011;4921;43.214;27.936;2024-01-30T12:57:14;7.07;;;3.00;;
9763;SDS011;4921;43.214;27.936;2024-01-30T12:59:40;6.40;;;2.65;;
9763;SDS011;4921;43.214;27.936;2024-01-30T13:02:05;8.13;;;2.90;;
9763;SDS011;4921;43.214;27.936;2024-01-30T13:04:32;7.45;;;2.90;;
9763;SDS011;4921;43.214;27.936;2024-01-30T13:06:58;6.95;;;2.85;;
9763;SDS011;4921;43.214;27.936;2024-01-30T13:09:23;5.78;;;3.20;;
9763;SDS011;4921;43.214;27.936;2024-01-30T13:11:49;6.88;;;2.33;;
9763;SDS011;4921;43.214;27.936;2024-01-30T13:14:16;6.25;;;2.65;;
9763;SDS011;4921;43.214;27.936;2024-01-30T13:16:41;6.50;;;2.75;;
9763;SDS011;4921;43.214;27.936;2024-01-30T13:19:07;5.63;;;2.10;;
9763;SDS011;4921;43.214;27.936;2024-01-30T13:21:33;5.07;;;2.05;;
9763;SDS011;4921;43.214;27.936;2024-01-30T13:23:58;6.07;;;2.28;;
9763;SDS011;4921;43.214;27.936;2024-01-30T13:26:24;4.65;;;2.25;;
9763;SDS011;4921;43.214;27.936;2024-01-30T13:28:49;7.05;;;2.45;;
9763;SDS011;4921;43.214;27.936;2024-01-30T13:31:15;7.78;;;2.67;;
9763;SDS011;4921;43.214;27.936;2024-01-30T13:33:41;5.13;;;2.47;;
9763;SDS011;4921;43.214;27.936;2024-01-30T13:36:07;5.20;;;2.35;;
9763;SDS011;4921;43.214;27.936;2024-01-30T13:38:33;7.03;;;2.20;;
9763;SDS011;4921;43.214;27.936;2024-01-30T13:40:59;5.38;;;1.60;;
9763;SDS011;4921;43.214;27.936;2024-01-30T13:43:25;4.93;;;2.15;;
9763;SDS011;4921;43.214;27.936;2024-01-30T13:45:51;6.53;;;1.88;;
9763;SDS011;4921;43.214;27.936;2024-01-30T13:48:17;6.20;;;2.17;;
9763;SDS011;4921;43.214;27.936;2024-01-30T13:50:42;3.53;;;1.48;;
9763;SDS011;4921;43.214;27.936;2024-01-30T13:53:08;4.68;;;2.03;;
9763;SDS011;4921;43.214;27.936;2024-01-30T13:55:34;7.18;;;1.70;;
9763;SDS011;4921;43.214;27.936;2024-01-30T13:57:59;3.25;;;1.77;;
9763;SDS011;4921;43.214;27.936;2024-01-30T14:00:26;5.38;;;2.10;;
9763;SDS011;4921;43.214;27.936;2024-01-30T14:02:52;4.30;;;1.80;;
9763;SDS011;4921;43.214;27.936;2024-01-30T14:05:19;3.47;;;1.48;;
9763;SDS011;4921;43.214;27.936;2024-01-30T14:07:46;4.43;;;1.95;;
9763;SDS011;4921;43.214;27.936;2024-01-30T14:10:12;5.65;;;1.88;;
9763;SDS011;4921;43.214;27.936;2024-01-30T14:12:38;4.57;;;1.88;;
9763;SDS011;4921;43.214;27.936;2024-01-30T14:15:03;4.53;;;2.03;;
9763;SDS011;4921;43.214;27.936;2024-01-30T14:17:29;5.80;;;1.60;;
9763;SDS011;4921;43.214;27.936;2024-01-30T14:19:55;4.85;;;1.55;;
9763;SDS011;4921;43.214;27.936;2024-01-30T14:22:21;8.40;;;1.95;;
9763;SDS011;4921;43.214;27.936;2024-01-30T14:24:47;4.65;;;1.98;;
9763;SDS011;4921;43.214;27.936;2024-01-30T14:27:12;3.90;;;1.63;;
9763;SDS011;4921;43.214;27.936;2024-01-30T14:29:38;6.72;;;2.33;;
9763;SDS011;4921;43.214;27.936;2024-01-30T14:32:04;4.90;;;2.08;;
9763;SDS011;4921;43.214;27.936;2024-01-30T14:34:30;4.15;;;1.80;;
9763;SDS011;4921;43.214;27.936;2024-01-30T14:36:55;5.50;;;2.10;;
9763;SDS011;4921;43.214;27.936;2024-01-30T14:39:21;4.97;;;2.17;;
9763;SDS011;4921;43.214;27.936;2024-01-30T14:41:47;5.22;;;2.35;;
9763;SDS011;4921;43.214;27.936;2024-01-30T14:44:12;5.07;;;1.70;;
9763;SDS011;4921;43.214;27.936;2024-01-30T14:46:39;4.75;;;1.80;;
9763;SDS011;4921;43.214;27.936;2024-01-30T14:49:04;10.07;;;2.72;;